createdAt,value
2022-08-20T00:00:30.819Z,24.30
2022-08-20T00:02:59.806Z,24.30
2022-08-20T00:05:28.931Z,24.30
2022-08-20T00:07:55.851Z,24.20
2022-08-20T00:10:23.177Z,24.20
2022-08-20T00:12:50.197Z,24.20
2022-08-20T00:15:21.672Z,24.30
2022-08-20T00:17:51.923Z,24.30
2022-08-20T00:20:20.244Z,24.30
2022-08-20T00:22:47.308Z,24.30
2022-08-20T00:25:14.103Z,24.30
2022-08-20T00:27:41.197Z,24.30
2022-08-20T00:30:09.365Z,24.20
2022-08-20T00:32:44.498Z,24.20
2022-08-20T00:35:12.965Z,24.20
2022-08-20T00:37:40.082Z,24.20
2022-08-20T00:40:07.608Z,24.30
2022-08-20T00:43:00.057Z,24.30
2022-08-20T00:45:30.846Z,24.30
2022-08-20T00:47:57.931Z,24.30
2022-08-20T00:50:29.061Z,24.30
2022-08-20T00:52:55.884Z,24.20
2022-08-20T00:55:24.402Z,24.20
2022-08-20T00:58:01.735Z,24.20
2022-08-20T01:00:37.761Z,24.20
2022-08-20T01:03:06.076Z,24.30
2022-08-20T01:05:40.187Z,24.30
2022-08-20T01:08:06.957Z,24.30
2022-08-20T01:10:36.234Z,24.30
2022-08-20T01:13:09.967Z,24.30
2022-08-20T01:15:43.403Z,24.20
2022-08-20T01:18:14.562Z,24.20
2022-08-20T01:21:01.150Z,24.20
2022-08-20T01:24:06.540Z,24.20
2022-08-20T01:26:38.743Z,24.30
2022-08-20T01:29:11.113Z,24.30
2022-08-20T01:31:38.753Z,24.30
2022-08-20T01:34:07.357Z,24.30
2022-08-20T01:36:46.459Z,24.30
2022-08-20T01:39:15.714Z,24.20
2022-08-20T01:42:09.705Z,24.20
2022-08-20T01:44:37.593Z,24.20
2022-08-20T01:47:12.394Z,24.20
2022-08-20T01:49:46.960Z,24.30
2022-08-20T01:52:17.865Z,24.30
2022-08-20T01:54:46.669Z,24.30
2022-08-20T01:57:17.906Z,24.30
2022-08-20T01:59:44.851Z,24.20
2022-08-20T02:02:12.710Z,24.20
2022-08-20T02:04:40.323Z,24.20
2022-08-20T02:07:07.889Z,24.20
2022-08-20T02:09:36.543Z,24.20
2022-08-20T02:12:04.093Z,24.20
2022-08-20T02:14:30.890Z,24.30
2022-08-20T02:17:00.801Z,24.30
2022-08-20T02:19:38.774Z,24.20
2022-08-20T02:22:18.041Z,24.20
2022-08-20T02:24:44.838Z,24.20
2022-08-20T02:27:11.763Z,24.20
2022-08-20T02:29:38.780Z,24.20
2022-08-20T02:32:32.519Z,24.20
2022-08-20T02:34:53.420Z,24.20
2022-08-20T02:37:20.187Z,24.30
2022-08-20T02:39:47.950Z,24.30
2022-08-20T02:42:14.841Z,24.30
2022-08-20T02:44:41.609Z,24.20
2022-08-20T02:47:08.376Z,24.20
2022-08-20T02:49:35.446Z,24.20
2022-08-20T02:52:02.238Z,24.20
2022-08-20T02:54:29.398Z,24.20
2022-08-20T02:56:56.447Z,24.20
2022-08-20T02:59:23.233Z,24.20
2022-08-20T03:01:59.843Z,24.20
2022-08-20T03:04:29.201Z,24.30
2022-08-20T03:06:56.350Z,24.30
2022-08-20T03:09:23.123Z,24.30
2022-08-20T03:11:50.357Z,24.20
2022-08-20T03:14:17.219Z,24.20
2022-08-20T03:16:43.975Z,24.20
2022-08-20T03:19:10.747Z,24.10
2022-08-20T03:21:37.518Z,24.20
2022-08-20T03:24:04.457Z,24.20
2022-08-20T03:26:31.255Z,24.30
2022-08-20T03:28:58.015Z,24.30
2022-08-20T03:31:24.846Z,24.30
2022-08-20T03:33:53.427Z,24.20
2022-08-20T03:36:22.248Z,24.20
2022-08-20T03:38:55.797Z,24.20
2022-08-20T03:41:22.793Z,24.10
2022-08-20T03:43:49.559Z,24.20
2022-08-20T03:46:22.965Z,24.20
2022-08-20T03:48:56.637Z,24.20
2022-08-20T03:51:28.622Z,24.30
2022-08-20T03:53:55.459Z,24.30
2022-08-20T03:56:22.843Z,24.30
2022-08-20T03:58:49.623Z,24.20
2022-08-20T04:01:44.425Z,24.20
2022-08-20T04:04:03.408Z,24.20
2022-08-20T04:06:30.433Z,24.20
2022-08-20T04:08:57.345Z,24.10
2022-08-20T04:11:24.458Z,24.20
2022-08-20T04:13:51.416Z,24.20
2022-08-20T04:16:19.485Z,24.30
2022-08-20T04:18:56.228Z,24.30
2022-08-20T04:21:32.586Z,24.20
2022-08-20T04:24:00.553Z,24.20
2022-08-20T04:26:27.363Z,24.20
2022-08-20T04:28:55.441Z,24.10
2022-08-20T04:31:25.321Z,24.10
2022-08-20T04:33:52.459Z,24.10
2022-08-20T04:36:19.379Z,24.20
2022-08-20T04:38:49.732Z,24.20
2022-08-20T04:41:21.031Z,24.20
2022-08-20T04:43:50.269Z,24.30
2022-08-20T04:46:17.147Z,24.20
2022-08-20T04:48:48.543Z,24.20
2022-08-20T04:51:15.995Z,24.10
2022-08-20T04:53:43.102Z,24.10
2022-08-20T04:56:09.979Z,24.10
2022-08-20T04:58:38.891Z,24.20
2022-08-20T05:01:09.315Z,24.20
2022-08-20T05:03:37.660Z,24.20
2022-08-20T05:06:06.187Z,24.20
2022-08-20T05:08:33.336Z,24.20
2022-08-20T05:11:27.668Z,24.20
2022-08-20T05:13:46.969Z,24.20
2022-08-20T05:16:13.797Z,24.20
2022-08-20T05:18:40.593Z,24.10
2022-08-20T05:21:07.379Z,24.10
2022-08-20T05:23:35.376Z,24.10
2022-08-20T05:26:05.386Z,24.20
2022-08-20T05:28:36.828Z,24.20
2022-08-20T05:31:20.510Z,24.20
2022-08-20T05:33:48.872Z,24.20
2022-08-20T05:36:15.632Z,24.20
2022-08-20T05:38:44.264Z,24.20
2022-08-20T05:41:27.522Z,24.10
2022-08-20T05:43:56.880Z,24.10
2022-08-20T05:46:23.716Z,24.10
2022-08-20T05:48:50.514Z,24.10
2022-08-20T05:51:17.614Z,24.20
2022-08-20T05:53:44.363Z,24.20
2022-08-20T05:56:11.432Z,24.20
2022-08-20T05:58:38.256Z,24.20
2022-08-20T06:01:05.391Z,24.20
2022-08-20T06:03:50.818Z,24.20
2022-08-20T06:06:20.714Z,24.10
2022-08-20T06:09:04.554Z,24.10
2022-08-20T06:11:36.418Z,24.10
2022-08-20T06:14:04.111Z,24.10
2022-08-20T06:16:31.966Z,24.10
2022-08-20T06:18:58.719Z,24.20
2022-08-20T06:21:26.047Z,24.20
2022-08-20T06:23:56.925Z,24.20
2022-08-20T06:26:29.925Z,24.20
2022-08-20T06:28:58.545Z,24.20
2022-08-20T06:31:25.340Z,24.10
2022-08-20T06:33:52.155Z,24.00
2022-08-20T06:36:19.272Z,24.10
2022-08-20T06:38:46.415Z,24.10
2022-08-20T06:41:14.108Z,24.10
2022-08-20T06:43:40.935Z,24.20
2022-08-20T06:46:08.233Z,24.20
2022-08-20T06:48:35.092Z,24.20
2022-08-20T06:51:01.843Z,24.20
2022-08-20T06:53:29.130Z,24.10
2022-08-20T06:55:56.829Z,24.10
2022-08-20T06:58:36.589Z,24.10
2022-08-20T07:01:09.456Z,24.10
2022-08-20T07:03:38.404Z,24.10
2022-08-20T07:06:05.505Z,24.10
2022-08-20T07:08:32.613Z,24.10
2022-08-20T07:10:59.775Z,24.20
2022-08-20T07:13:26.784Z,24.20
2022-08-20T07:15:54.143Z,24.20
2022-08-20T07:18:28.528Z,24.10
2022-08-20T07:20:57.587Z,24.10
2022-08-20T07:23:27.068Z,24.10
2022-08-20T07:25:55.580Z,24.10
2022-08-20T07:28:23.486Z,24.10
2022-08-20T07:31:13.547Z,24.10
2022-08-20T07:33:42.758Z,24.10
2022-08-20T07:36:11.935Z,24.20
2022-08-20T07:38:38.818Z,24.20
2022-08-20T07:41:13.417Z,24.20
2022-08-20T07:43:41.416Z,24.10
2022-08-20T07:46:09.058Z,24.10
2022-08-20T07:48:39.474Z,24.10
2022-08-20T07:51:06.758Z,24.10
2022-08-20T07:53:35.852Z,24.10
2022-08-20T07:56:06.173Z,24.10
2022-08-20T07:58:35.334Z,24.10
2022-08-20T08:01:02.132Z,24.10
2022-08-20T08:03:39.865Z,24.20
2022-08-20T08:06:18.240Z,24.20
2022-08-20T08:08:55.597Z,24.10
2022-08-20T08:11:22.390Z,24.10
2022-08-20T08:13:49.207Z,24.10
2022-08-20T08:16:16.002Z,24.00
2022-08-20T08:18:49.750Z,24.00
2022-08-20T08:21:17.739Z,24.10
2022-08-20T08:23:44.907Z,24.10
2022-08-20T08:26:15.970Z,24.10
2022-08-20T08:28:46.263Z,24.20
2022-08-20T08:31:13.143Z,24.20
2022-08-20T08:33:40.758Z,24.20
2022-08-20T08:36:14.157Z,24.10
2022-08-20T08:38:42.958Z,24.00
2022-08-20T08:41:39.904Z,24.00
2022-08-20T08:44:08.489Z,23.90
2022-08-20T08:46:43.695Z,23.90
2022-08-20T08:49:12.019Z,23.80
2022-08-20T08:52:17.374Z,23.70
2022-08-20T08:54:49.439Z,23.40
2022-08-20T08:57:16.830Z,23.00
2022-08-20T08:59:58.191Z,22.90
2022-08-20T09:02:31.501Z,22.90
2022-08-20T09:04:59.670Z,22.80
2022-08-20T09:07:28.308Z,22.90
2022-08-20T09:09:55.647Z,22.90
2022-08-20T09:12:24.589Z,22.80
2022-08-20T09:14:51.894Z,22.90
2022-08-20T09:17:20.372Z,23.00
2022-08-20T09:19:47.272Z,23.00
2022-08-20T09:22:16.290Z,23.10
2022-08-20T09:24:43.581Z,22.90
2022-08-20T09:27:10.526Z,22.90
2022-08-20T09:29:37.666Z,23.00
2022-08-20T09:32:09.190Z,22.90
2022-08-20T09:34:42.980Z,23.00
2022-08-20T09:37:10.262Z,23.10
2022-08-20T09:39:37.513Z,23.10
2022-08-20T09:42:20.923Z,22.90
2022-08-20T09:44:47.760Z,23.00
2022-08-20T09:47:14.691Z,23.10
2022-08-20T09:49:41.517Z,23.10
2022-08-20T09:52:10.084Z,23.00
2022-08-20T09:54:37.543Z,23.00
2022-08-20T09:57:06.614Z,23.00
2022-08-20T09:59:33.932Z,23.10
2022-08-20T10:02:02.467Z,23.10
2022-08-20T10:04:29.254Z,23.20
2022-08-20T10:06:56.078Z,23.20
2022-08-20T10:09:23.458Z,23.20
2022-08-20T10:11:50.271Z,23.10
2022-08-20T10:14:17.026Z,23.20
2022-08-20T10:16:43.829Z,23.20
2022-08-20T10:19:10.876Z,23.30
2022-08-20T10:21:39.147Z,23.30
2022-08-20T10:24:06.284Z,23.40
2022-08-20T10:26:33.083Z,23.50
2022-08-20T10:28:59.845Z,23.30
2022-08-20T10:31:26.647Z,23.30
2022-08-20T10:33:53.382Z,23.50
2022-08-20T10:36:20.169Z,23.40
2022-08-20T10:38:48.557Z,23.30
2022-08-20T10:41:15.386Z,23.50
2022-08-20T10:43:42.153Z,23.40
2022-08-20T10:46:09.445Z,23.40
2022-08-20T10:48:36.213Z,23.30
2022-08-20T10:51:03.000Z,23.10
2022-08-20T10:53:29.845Z,23.30
2022-08-20T10:55:57.637Z,23.30
2022-08-20T10:58:24.872Z,23.30
2022-08-20T11:00:51.848Z,23.20
2022-08-20T11:03:18.961Z,23.20
2022-08-20T11:05:46.228Z,23.20
2022-08-20T11:08:13.109Z,23.30
2022-08-20T11:10:40.642Z,23.40
2022-08-20T11:13:07.933Z,23.50
2022-08-20T11:15:37.161Z,23.40
2022-08-20T11:18:04.257Z,23.50
2022-08-20T11:20:32.013Z,23.50
2022-08-20T11:22:58.816Z,23.30
2022-08-20T11:25:25.934Z,23.30
2022-08-20T11:27:53.091Z,23.30
2022-08-20T11:30:24.874Z,23.30
2022-08-20T11:32:51.885Z,23.30
2022-08-20T11:35:41.821Z,23.30
2022-08-20T11:38:06.385Z,23.20
2022-08-20T11:40:33.226Z,23.30
2022-08-20T11:43:16.880Z,23.30
2022-08-20T11:45:45.719Z,23.30
2022-08-20T11:48:12.480Z,23.30
2022-08-20T11:50:39.425Z,23.40
2022-08-20T11:53:06.182Z,23.40
2022-08-20T11:55:34.872Z,23.40
2022-08-20T11:58:02.120Z,23.30
2022-08-20T12:00:33.766Z,23.30
2022-08-20T12:03:01.852Z,23.10
2022-08-20T12:05:29.938Z,23.20
2022-08-20T12:07:57.349Z,23.30
2022-08-20T12:10:26.654Z,23.30
2022-08-20T12:12:53.952Z,23.30
2022-08-20T12:15:20.870Z,23.30
2022-08-20T12:17:48.040Z,23.40
2022-08-20T12:20:15.049Z,23.50
2022-08-20T12:22:41.867Z,23.50
2022-08-20T12:25:09.391Z,23.50
2022-08-20T12:27:36.697Z,23.50
2022-08-20T12:30:09.846Z,23.50
2022-08-20T12:32:36.734Z,23.50
2022-08-20T12:35:04.853Z,23.50
2022-08-20T12:37:31.995Z,23.50
2022-08-20T12:40:00.838Z,23.60
2022-08-20T12:42:29.432Z,23.60
2022-08-20T12:44:57.310Z,23.60
2022-08-20T12:47:29.216Z,23.70
2022-08-20T12:50:01.112Z,23.90
2022-08-20T12:52:29.173Z,24.00
2022-08-20T12:54:56.620Z,24.10
2022-08-20T12:57:32.165Z,24.10
2022-08-20T13:00:04.796Z,24.10
2022-08-20T13:02:32.526Z,24.20
2022-08-20T13:05:04.636Z,24.20
2022-08-20T13:07:32.417Z,24.20
2022-08-20T13:09:59.631Z,24.20
2022-08-20T13:12:26.425Z,24.20
2022-08-20T13:14:53.197Z,24.30
2022-08-20T13:17:20.469Z,24.30
2022-08-20T13:20:09.791Z,24.30
2022-08-20T13:22:36.719Z,24.40
2022-08-20T13:25:04.737Z,24.40
2022-08-20T13:27:31.897Z,24.50
2022-08-20T13:29:59.231Z,24.50
2022-08-20T13:32:26.492Z,24.50
2022-08-20T13:34:53.380Z,24.60
2022-08-20T13:37:25.392Z,24.60
2022-08-20T13:39:55.882Z,24.50
2022-08-20T13:42:22.717Z,24.60
2022-08-20T13:44:49.565Z,24.70
2022-08-20T13:47:20.022Z,24.70
2022-08-20T13:49:47.175Z,24.80
2022-08-20T13:52:16.982Z,24.80
2022-08-20T13:54:43.955Z,24.80
2022-08-20T13:57:16.145Z,24.80
2022-08-20T13:59:44.932Z,24.80
2022-08-20T14:02:12.474Z,24.80
2022-08-20T14:04:39.559Z,24.80
2022-08-20T14:07:15.849Z,24.90
2022-08-20T14:09:44.869Z,24.90
2022-08-20T14:12:13.106Z,24.90
2022-08-20T14:14:40.403Z,24.90
2022-08-20T14:17:27.393Z,25.00
2022-08-20T14:20:01.549Z,24.90
2022-08-20T14:22:28.889Z,24.90
2022-08-20T14:24:56.480Z,25.00
2022-08-20T14:27:26.529Z,25.00
2022-08-20T14:29:57.451Z,24.90
2022-08-20T14:32:24.212Z,25.00
2022-08-20T14:34:50.960Z,25.00
2022-08-20T14:37:17.685Z,25.00
2022-08-20T14:39:46.333Z,25.00
2022-08-20T14:42:13.590Z,25.00
2022-08-20T14:44:40.958Z,25.00
2022-08-20T14:47:15.018Z,25.00
2022-08-20T14:49:43.311Z,25.00
2022-08-20T14:52:11.051Z,24.90
2022-08-20T14:54:37.957Z,25.00
2022-08-20T14:57:05.583Z,25.10
2022-08-20T14:59:39.809Z,25.10
2022-08-20T15:02:07.523Z,25.10
2022-08-20T15:04:34.883Z,25.00
2022-08-20T15:07:10.910Z,25.00
2022-08-20T15:09:37.965Z,24.90
2022-08-20T15:12:05.163Z,24.90
2022-08-20T15:14:31.924Z,24.90
2022-08-20T15:17:00.407Z,24.80
2022-08-20T15:19:27.209Z,24.90
2022-08-20T15:21:54.142Z,24.90
2022-08-20T15:24:21.246Z,24.90
2022-08-20T15:26:48.077Z,24.90
2022-08-20T15:29:22.971Z,25.00
2022-08-20T15:31:50.602Z,25.00
2022-08-20T15:34:17.812Z,25.00
2022-08-20T15:36:45.223Z,25.00
2022-08-20T15:39:12.515Z,25.00
2022-08-20T15:41:39.300Z,25.00
2022-08-20T15:44:07.166Z,25.00
2022-08-20T15:46:37.708Z,25.00
2022-08-20T15:49:10.728Z,25.10
2022-08-20T15:51:37.739Z,25.00
2022-08-20T15:54:12.574Z,25.00
2022-08-20T15:57:01.916Z,25.00
2022-08-20T15:59:47.573Z,25.00
2022-08-20T16:02:33.037Z,25.00
2022-08-20T16:05:26.089Z,25.10
2022-08-20T16:08:31.851Z,25.10
2022-08-20T16:11:17.169Z,25.10
2022-08-20T16:13:43.964Z,25.10
2022-08-20T16:16:32.780Z,25.10
2022-08-20T16:18:59.699Z,25.10
2022-08-20T16:21:37.397Z,25.10
2022-08-20T16:24:05.270Z,25.10
2022-08-20T16:26:44.111Z,25.10
2022-08-20T16:29:39.100Z,25.10
2022-08-20T16:32:18.173Z,25.10
2022-08-20T16:34:59.077Z,25.10
2022-08-20T16:37:42.173Z,25.10
2022-08-20T16:40:27.018Z,25.10
2022-08-20T16:42:55.013Z,25.10
2022-08-20T16:45:25.071Z,25.00
2022-08-20T16:47:53.441Z,25.10
2022-08-20T16:50:26.359Z,25.10
2022-08-20T16:52:53.273Z,25.10
2022-08-20T16:55:21.516Z,25.10
2022-08-20T16:57:48.859Z,25.10
2022-08-20T17:00:34.919Z,25.10
2022-08-20T17:03:07.681Z,25.10
2022-08-20T17:05:37.532Z,25.10
2022-08-20T17:08:07.138Z,25.10
2022-08-20T17:10:37.517Z,25.10
2022-08-20T17:13:05.751Z,25.00
2022-08-20T17:15:35.053Z,25.10
2022-08-20T17:18:24.542Z,25.20
2022-08-20T17:20:51.551Z,25.30
2022-08-20T17:23:19.141Z,25.30
2022-08-20T17:25:55.042Z,25.30
2022-08-20T17:28:23.071Z,25.30
2022-08-20T17:30:49.921Z,25.20
2022-08-20T17:33:32.879Z,25.20
2022-08-20T17:36:02.543Z,25.20
2022-08-20T17:38:42.113Z,25.10
2022-08-20T17:41:29.184Z,25.10
2022-08-20T17:43:59.372Z,25.10
2022-08-20T17:46:26.162Z,25.10
2022-08-20T17:48:52.931Z,25.10
2022-08-20T17:51:21.641Z,25.00
2022-08-20T17:54:12.055Z,25.00
2022-08-20T17:56:40.366Z,25.00
2022-08-20T17:59:24.014Z,25.00
2022-08-20T18:02:00.177Z,25.00
2022-08-20T18:04:27.318Z,25.00
2022-08-20T18:07:01.501Z,25.00
2022-08-20T18:09:33.288Z,25.00
2022-08-20T18:12:01.834Z,25.00
2022-08-20T18:14:52.262Z,24.70
2022-08-20T18:17:49.500Z,24.50
2022-08-20T18:20:24.934Z,24.40
2022-08-20T18:22:56.063Z,24.20
2022-08-20T18:25:41.583Z,24.20
2022-08-20T18:28:20.915Z,24.00
2022-08-20T18:30:59.084Z,24.00
2022-08-20T18:33:30.926Z,24.30
2022-08-20T18:36:10.111Z,24.40
2022-08-20T18:38:41.715Z,24.60
2022-08-20T18:41:30.426Z,24.60
2022-08-20T18:44:09.145Z,24.60
2022-08-20T18:46:37.364Z,24.80
2022-08-20T18:49:06.641Z,24.80
2022-08-20T18:51:51.658Z,24.80
2022-08-20T18:54:23.812Z,24.90
2022-08-20T18:56:50.571Z,24.90
2022-08-20T18:59:20.436Z,24.90
2022-08-20T19:01:48.603Z,25.00
2022-08-20T19:04:30.067Z,25.00
2022-08-20T19:07:04.548Z,25.10
2022-08-20T19:09:49.415Z,25.00
2022-08-20T19:12:52.435Z,25.00
2022-08-20T19:15:20.280Z,25.00
2022-08-20T19:18:05.347Z,25.00
2022-08-20T19:20:33.781Z,25.00
2022-08-20T19:23:06.160Z,24.90
2022-08-20T19:25:35.637Z,25.00
2022-08-20T19:28:31.413Z,24.90
2022-08-20T19:31:20.512Z,25.00
2022-08-20T19:33:47.889Z,24.90
2022-08-20T19:36:28.108Z,24.90
2022-08-20T19:38:56.964Z,24.80
2022-08-20T19:41:31.311Z,24.80
2022-08-20T19:43:59.860Z,24.70
2022-08-20T19:46:35.032Z,24.70
2022-08-20T19:49:16.323Z,24.70
2022-08-20T19:52:09.001Z,24.70
2022-08-20T19:54:47.429Z,24.70
2022-08-20T19:57:14.275Z,24.70
2022-08-20T20:00:12.036Z,24.70
2022-08-20T20:02:41.484Z,24.70
2022-08-20T20:05:10.137Z,24.70
2022-08-20T20:07:49.071Z,24.70
2022-08-20T20:10:33.849Z,24.70
2022-08-20T20:13:15.352Z,24.70
2022-08-20T20:15:42.475Z,24.70
2022-08-20T20:18:09.790Z,24.70
2022-08-20T20:20:57.990Z,24.80
2022-08-20T20:23:45.805Z,24.70
2022-08-20T20:26:17.336Z,24.80
2022-08-20T20:28:51.560Z,24.80
2022-08-20T20:31:24.994Z,24.70
2022-08-20T20:33:56.369Z,24.70
2022-08-20T20:36:37.313Z,24.80
2022-08-20T20:39:14.551Z,24.70
2022-08-20T20:41:53.424Z,24.80
2022-08-20T20:44:21.538Z,24.70
2022-08-20T20:46:49.348Z,24.80
2022-08-20T20:49:25.537Z,24.80
2022-08-20T20:51:55.421Z,24.80
2022-08-20T20:54:30.430Z,24.70
2022-08-20T20:57:05.320Z,24.70
2022-08-20T20:59:33.419Z,24.70
2022-08-20T21:02:00.401Z,24.70
2022-08-20T21:04:27.356Z,24.70
2022-08-20T21:06:55.477Z,24.70
2022-08-20T21:09:22.675Z,24.70
2022-08-20T21:11:50.237Z,24.70
2022-08-20T21:14:17.329Z,24.70
2022-08-20T21:16:44.173Z,24.70
2022-08-20T21:19:11.125Z,24.70
2022-08-20T21:21:38.476Z,24.60
2022-08-20T21:24:05.909Z,24.70
2022-08-20T21:26:32.857Z,24.60
2022-08-20T21:28:59.638Z,24.60
2022-08-20T21:31:33.444Z,24.60
2022-08-20T21:34:00.429Z,24.60
2022-08-20T21:36:27.194Z,24.70
2022-08-20T21:38:54.057Z,24.70
2022-08-20T21:41:29.626Z,24.70
2022-08-20T21:43:58.631Z,24.70
2022-08-20T21:46:25.981Z,24.70
2022-08-20T21:48:52.798Z,24.60
2022-08-20T21:51:19.568Z,24.60
2022-08-20T21:53:46.570Z,24.60
2022-08-20T21:56:13.311Z,24.60
2022-08-20T21:58:40.086Z,24.60
2022-08-20T22:01:07.822Z,24.60
2022-08-20T22:03:38.800Z,24.60
2022-08-20T22:06:08.775Z,24.60
2022-08-20T22:08:35.577Z,24.60
2022-08-20T22:11:02.546Z,24.70
2022-08-20T22:13:31.769Z,24.70
2022-08-20T22:16:07.509Z,24.70
2022-08-20T22:18:34.611Z,24.60
2022-08-20T22:21:01.660Z,24.60
2022-08-20T22:23:28.494Z,24.60
2022-08-20T22:25:55.299Z,24.60
2022-08-20T22:28:22.100Z,24.60
2022-08-20T22:30:48.863Z,24.60
2022-08-20T22:33:20.491Z,24.50
2022-08-20T22:35:48.771Z,24.50
2022-08-20T22:38:16.209Z,24.60
2022-08-20T22:40:43.334Z,24.60
2022-08-20T22:43:10.112Z,24.60
2022-08-20T22:45:36.855Z,24.60
2022-08-20T22:48:03.895Z,24.60
2022-08-20T22:50:30.656Z,24.60
2022-08-20T22:52:57.540Z,24.60
2022-08-20T22:55:24.707Z,24.60
2022-08-20T22:57:51.926Z,24.60
2022-08-20T23:00:19.236Z,24.60
2022-08-20T23:02:50.620Z,24.60
2022-08-20T23:05:18.419Z,24.50
2022-08-20T23:07:45.252Z,24.50
2022-08-20T23:10:12.017Z,24.50
2022-08-20T23:12:38.826Z,24.50
2022-08-20T23:15:06.149Z,24.50
2022-08-20T23:17:33.920Z,24.50
2022-08-20T23:20:00.703Z,24.60
2022-08-20T23:22:27.752Z,24.60
2022-08-20T23:24:57.331Z,24.60
2022-08-20T23:27:28.055Z,24.60
2022-08-20T23:29:54.913Z,24.60
2022-08-20T23:32:21.647Z,24.50
2022-08-20T23:34:48.436Z,24.50
2022-08-20T23:37:18.828Z,24.50
2022-08-20T23:39:46.476Z,24.50
2022-08-20T23:42:14.161Z,24.50
2022-08-20T23:44:40.941Z,24.50
2022-08-20T23:47:08.394Z,24.50
2022-08-20T23:49:35.257Z,24.40
2022-08-20T23:52:02.056Z,24.50
2022-08-20T23:54:30.072Z,24.50
2022-08-20T23:56:57.689Z,24.60
2022-08-20T23:59:25.153Z,24.60
